Terminal Aerodrome Forecast
Issued by NWS

Home | Current Version | Previous Version | Text Only | Print | Product List | Glossary On
Versions: 1 2 3 4 5 6 7 8 9 10 11 12 13 14 15 16 17 18 19 20 21 22 23 24 25 26 27
000
FTUS43 KPAH 232300 RRA
TAFOWB
TAF
KOWB 232341Z 2400/2424 12006KT 5SM -RA BR BKN007 OVC020
     FM240200 21009KT P6SM OVC007
     FM240500 20011KT 6SM -SHRA BR OVC004
     FM241100 24020G28KT P6SM OVC008
     FM241500 25020G28KT P6SM BKN025=

USA.gov is the U.S. government's official web portal to all federal, state and local government web resources and services.